Latest Weather Observations for Kilmore Gap

IDV60801

Issued at 9:35 pm EST Tuesday 30 September 2014 (issued every 30 minutes, with the page automatically refreshed every 10 minutes)

About weather observations | Map of weather stations | Latest weather observations for VIC | Other Formats
Station Details ID: 088162 Name: KILMORE GAP Lat: -37.38 Lon: 144.97 Height: 527.8 m
Data from the previous 72 hours. | See also: Recent months at Kilmore Gap
Date/Time
EST
Temp
°C
App
Temp
°C
Dew
Point
Rel
Hum
%
Delta-T
°C
Wind Press
QNH
hPa
Press
MSL
hPa
Rain
since 9 am
mm
Dir
 
Spd
km/h
Gust
km/h
Spd
kts
Gust
kts
30/09:30pm 5.8 0.0 2.1 77 1.5 W 22 30 12 16 1013.6 - 1.4
30/09:00pm 5.6 0.4 2.6 81 1.3 WSW 19 30 10 16 1013.6 1014.0 1.4
30/08:31pm 5.8 -1.0 3.3 84 1.1 W 28 46 15 25 1013.1 - 1.4
30/08:30pm 5.8 -1.3 3.3 84 1.1 W 30 46 16 25 1013.1 - 1.4
30/08:00pm 5.8 -0.9 3.8 87 0.9 WSW 28 41 15 22 1012.6 - 1.4
30/07:30pm 5.7 0.6 4.0 89 0.7 WSW 20 28 11 15 1012.0 - 1.4
30/07:00pm 6.1 0.7 4.6 90 0.7 WSW 22 32 12 17 1011.6 - 1.4
30/06:39pm 6.9 0.4 4.6 85 1.0 WSW 28 50 15 27 1011.4 - 1.4
30/06:30pm 7.2 1.3 3.8 79 1.5 WSW 24 41 13 22 1011.1 - 1.4
30/06:00pm 7.2 -0.2 3.8 79 1.5 WSW 32 44 17 24 1010.0 1010.4 1.4
30/05:30pm 6.8 -0.3 5.3 90 0.7 W 32 43 17 23 1010.3 - 1.4
30/05:14pm 6.5 -0.5 6.1 97 0.2 WSW 32 46 17 25 1010.2 - 1.4
30/05:00pm 6.2 -1.0 5.9 98 0.1 WSW 33 59 18 32 1009.9 - 1.4
30/04:42pm 6.8 -0.2 6.7 99 0.0 SW 33 57 18 31 1009.6 - 0.8
30/04:39pm 6.9 -0.1 6.8 99 0.0 SW 33 57 18 31 1009.5 - 0.4
30/04:30pm 7.5 0.7 7.5 100 0.0 SW 33 56 18 30 1009.0 - 0.0
30/04:19pm 8.7 0.9 8.4 98 0.1 SW 39 57 21 31 1008.4 - 0.0
30/04:16pm 9.8 2.6 9.2 96 0.3 WSW 37 70 20 38 1008.4 - 0.0
30/04:15pm 10.2 3.1 9.6 96 0.3 WSW 37 70 20 38 1008.2 - 0.0
30/04:00pm 12.0 2.1 9.6 85 1.3 W 52 109 28 59 1007.0 - 0.0
30/03:57pm 12.0 2.4 9.6 85 1.3 W 50 109 27 59 1006.8 - 0.0
30/03:56pm 12.1 2.1 9.5 84 1.4 W 52 109 28 59 1006.7 - 0.0
30/03:53pm 12.9 -2.2 8.8 76 2.1 W 78 109 42 59 1005.9 - 0.0
30/03:51pm 15.3 6.6 7.6 60 3.9 WNW 43 109 23 59 1006.1 - 0.0
30/03:30pm 17.2 7.8 5.2 45 5.9 NW 44 67 24 36 1004.9 - 0.0
30/03:00pm 17.9 7.4 5.8 45 6.1 NW 50 74 27 40 1004.5 1004.8 0.0
30/02:30pm 19.3 8.7 6.8 44 6.5 NW 52 80 28 43 1004.1 - 0.0
30/02:00pm 18.5 7.1 6.7 46 6.1 NNW 56 85 30 46 1003.5 - 0.0
30/01:34pm 18.1 7.7 9.2 56 4.8 NNW 54 72 29 39 1004.0 - 0.0
30/01:30pm 18.0 7.1 9.4 57 4.6 NNW 57 74 31 40 1004.0 - 0.0
30/01:00pm 17.2 6.8 10.6 65 3.6 NNW 56 76 30 41 1005.6 - 0.0
30/12:54pm 16.8 6.5 9.7 63 3.8 NNW 54 74 29 40 1005.6 - 0.0
30/12:30pm 16.4 7.1 9.1 62 3.9 N 48 63 26 34 1006.3 - 0.0
30/12:00pm 15.7 6.7 8.9 64 3.6 N 46 67 25 36 1007.3 1007.6 0.0
30/11:51am 16.5 8.3 9.7 64 3.7 N 43 63 23 34 1007.3 - 0.0
30/11:30am 15.4 7.1 9.5 68 3.1 N 43 57 23 31 1007.8 - 0.0
30/11:00am 13.8 7.0 10.6 81 1.7 N 37 50 20 27 1008.3 - 0.0
30/10:30am 13.9 7.3 9.9 77 2.1 N 35 44 19 24 1009.1 - 0.0
30/10:00am 13.7 7.4 9.7 77 2.1 NNE 33 41 18 22 1009.6 - 0.0
30/09:30am 13.4 8.5 10.0 80 1.8 N 26 33 14 18 1010.7 - 0.0
30/09:00am 12.5 7.5 9.7 83 1.5 N 26 30 14 16 1011.4 1011.8 0.0
30/08:30am 12.3 7.2 9.1 81 1.7 N 26 32 14 17 1011.5 - 0.0
30/08:00am 11.1 5.9 9.0 87 1.1 N 26 32 14 17 1011.7 - 0.0
30/07:30am 10.2 4.9 8.5 89 0.9 N 26 32 14 17 1011.9 - 0.0
30/07:00am 9.4 4.4 8.2 92 0.6 N 24 30 13 16 1011.7 - 0.0
30/06:30am 9.3 3.4 7.7 90 0.8 N 28 32 15 17 1011.4 - 0.0
30/06:00am 9.2 2.6 7.6 90 0.8 NNW 32 39 17 21 1010.7 1011.1 0.0
30/05:30am 9.2 2.0 7.8 91 0.7 NNW 35 44 19 24 1010.1 - 0.0
30/05:00am 9.4 2.3 8.0 91 0.7 N 35 44 19 24 1010.0 - 0.0
30/04:30am 10.0 1.8 8.4 90 0.8 N 41 52 22 28 1009.8 - 0.0
30/04:00am 10.4 2.2 8.3 87 1.1 N 41 50 22 27 1009.8 - 0.0
30/03:30am 10.4 1.7 8.5 88 1.0 N 44 57 24 31 1009.9 - 0.0
30/03:00am 10.6 2.9 8.5 87 1.1 N 39 52 21 28 1010.0 1010.4 0.0
30/02:30am 10.8 3.1 8.6 86 1.1 N 39 46 21 25 1010.4 - 0.0
30/02:00am 11.1 3.7 8.5 84 1.3 N 37 48 20 26 1011.0 - 0.0
30/01:30am 10.6 4.2 8.4 86 1.1 N 32 39 17 21 1011.4 - 0.0
30/01:00am 10.5 4.8 8.4 87 1.1 N 28 35 15 19 1011.8 - 0.0
30/12:30am 10.6 4.6 8.5 87 1.1 N 30 35 16 19 1012.0 - 0.0
30/12:00am 11.0 4.5 8.8 86 1.1 N 33 41 18 22 1012.4 1012.9 0.0
 
Date/Time
EST
Temp
°C
App
Temp
°C
Dew
Point
Rel
Hum
%
Delta-T
°C
Wind Press
QNH
hPa
Press
MSL
hPa
Rain
since 9 am
mm
Dir
 
Spd
km/h
Gust
km/h
Spd
kts
Gust
kts
29/11:30pm 11.1 4.5 8.7 85 1.2 N 33 43 18 23 1012.8 - 0.0
29/11:00pm 11.1 3.4 8.8 86 1.2 N 39 48 21 26 1012.8 - 0.0
29/10:30pm 11.2 3.6 8.9 86 1.2 N 39 48 21 26 1012.9 - 0.0
29/10:00pm 11.7 4.1 8.9 83 1.4 N 39 46 21 25 1012.9 - 0.0
29/09:30pm 12.0 5.1 9.0 82 1.5 N 35 44 19 24 1013.1 - 0.0
29/09:00pm 12.1 5.9 9.3 83 1.5 N 32 41 17 22 1013.4 1013.8 0.0
29/08:30pm 12.1 6.3 9.3 83 1.5 N 30 39 16 21 1013.3 - 0.0
29/08:00pm 12.4 6.5 9.2 81 1.7 N 30 37 16 20 1013.2 - 0.0
29/07:30pm 12.9 7.0 9.0 77 2.0 N 30 37 16 20 1013.1 - 0.0
29/07:00pm 13.1 7.7 8.2 72 2.5 N 26 32 14 17 1013.0 - 0.0
29/06:30pm 13.3 7.9 8.2 71 2.6 N 26 30 14 16 1012.9 - 0.0
29/06:00pm 14.6 9.6 8.1 65 3.3 N 24 28 13 15 1013.0 1013.4 0.0
29/05:30pm 15.4 10.5 8.6 64 3.6 N 24 33 13 18 1013.0 - 0.0
29/05:00pm 16.0 10.5 9.0 63 3.7 NNW 28 33 15 18 1013.0 - 0.0
29/04:30pm 16.3 9.4 8.8 61 4.0 N 35 46 19 25 1012.6 - 0.0
29/04:00pm 16.3 9.9 9.5 64 3.6 NNW 33 46 18 25 1012.4 - 0.0
29/03:30pm 16.4 9.6 9.3 63 3.8 N 35 46 19 25 1012.4 - 0.0
29/03:08pm 16.5 9.1 8.5 59 4.2 N 37 56 20 30 1012.0 - 0.0
29/03:00pm 16.6 8.3 9.5 63 3.8 N 43 57 23 31 1012.0 1012.4 0.0
29/02:30pm 16.8 9.5 8.8 59 4.2 N 37 50 20 27 1012.6 - 0.0
29/02:00pm 16.6 10.4 9.3 62 3.9 N 32 44 17 24 1013.1 - 0.0
29/01:30pm 16.2 10.2 8.7 61 3.9 N 30 43 16 23 1013.4 - 0.0
29/01:00pm 15.8 10.0 9.5 66 3.4 NNW 30 39 16 21 1013.8 - 0.0
29/12:30pm 15.3 10.4 8.3 63 3.6 NNW 24 37 13 20 1014.0 - 0.0
29/12:00pm 15.5 10.8 9.2 66 3.3 N 24 33 13 18 1014.2 1014.7 0.0
29/11:30am 15.2 12.1 8.9 66 3.3 NNW 15 28 8 15 1014.4 - 0.0
29/11:00am 14.1 9.9 7.6 65 3.3 N 19 30 10 16 1014.7 - 0.0
29/10:30am 14.4 10.4 8.1 66 3.2 NNW 19 28 10 15 1014.7 - 0.0
29/10:00am 14.5 12.1 9.9 74 2.5 N 13 22 7 12 1014.8 - 0.0
29/09:30am 12.4 9.4 7.5 72 2.5 NW 13 17 7 9 1015.1 - 0.0
29/09:00am 12.7 10.9 7.0 68 2.8 W 6 9 3 5 1015.0 1015.4 0.0
29/08:30am 12.2 10.1 6.5 68 2.8 W 7 13 4 7 1014.7 - 0.0
29/08:00am 11.9 10.1 7.0 72 2.4 N 6 11 3 6 1014.3 - 0.0
29/07:30am 11.1 9.0 6.8 75 2.1 N 7 11 4 6 1014.1 - 0.0
29/07:00am 10.2 7.7 6.5 78 1.8 NNW 9 13 5 7 1013.8 - 0.0
29/06:30am 9.6 7.5 6.7 82 1.4 NW 7 9 4 5 1013.5 - 0.0
29/06:00am 9.0 6.0 5.9 81 1.5 S 11 19 6 10 1012.9 1013.3 0.0
29/05:30am 9.1 6.0 5.7 79 1.6 SSW 11 17 6 9 1012.6 - 0.0
29/05:00am 9.0 5.0 5.0 76 1.8 SE 15 17 8 9 1012.2 - 0.0
29/04:30am 10.2 6.5 4.6 68 2.6 SW 13 24 7 13 1011.6 - 0.0
29/04:00am 11.0 7.0 3.1 58 3.6 SW 13 19 7 10 1011.5 - 0.0
29/03:30am 10.7 7.5 1.0 51 4.1 SE 7 13 4 7 1011.5 - 0.0
29/03:00am 11.8 7.5 1.2 48 4.6 WSW 13 22 7 12 1011.1 1011.5 0.0
29/02:30am 11.7 6.3 1.4 49 4.5 WSW 19 28 10 15 1011.0 - 0.0
29/02:00am 12.3 7.3 4.8 60 3.5 WSW 20 30 11 16 1011.0 - 0.0
29/01:30am 11.9 8.4 10.3 90 0.8 S 19 32 10 17 1010.8 - 0.0
29/01:00am 12.1 9.5 10.7 91 0.7 SE 15 19 8 10 1009.7 - 0.0
29/12:30am 11.8 9.1 10.5 92 0.7 S 15 20 8 11 1009.8 - 0.0
29/12:00am 14.2 10.5 9.4 73 2.5 S 19 24 10 13 1009.4 1009.8 0.0
 
Date/Time
EST
Temp
°C
App
Temp
°C
Dew
Point
Rel
Hum
%
Delta-T
°C
Wind Press
QNH
hPa
Press
MSL
hPa
Rain
since 9 am
mm
Dir
 
Spd
km/h
Gust
km/h
Spd
kts
Gust
kts
28/11:30pm 16.6 9.7 6.4 51 5.1 N 32 37 17 20 1008.2 - 0.0
28/11:00pm 17.3 10.2 6.2 48 5.6 N 33 44 18 24 1007.8 - 0.0
28/10:30pm 16.4 9.8 7.6 56 4.5 NNW 32 39 17 21 1008.1 - 0.0
28/10:09pm 16.5 11.9 8.2 58 4.3 NW 22 48 12 26 1008.2 - 0.0
28/10:00pm 17.1 8.8 7.7 54 4.9 N 41 56 22 30 1007.6 - 0.0
28/09:30pm 18.4 9.0 7.2 48 5.8 N 46 63 25 34 1007.0 - 0.0
28/09:22pm 18.4 9.0 7.2 48 5.8 N 46 65 25 35 1007.0 - 0.0
28/09:00pm 18.2 8.5 7.3 49 5.7 N 48 59 26 32 1006.8 1007.1 0.0
28/08:30pm 18.6 8.9 7.4 48 5.8 N 48 61 26 33 1007.0 - 0.0
28/08:02pm 18.6 8.4 7.1 47 5.9 N 50 72 27 39 1006.8 - 0.0
28/08:00pm 18.8 8.7 7.3 47 6.0 N 50 65 27 35 1006.7 - 0.0
28/07:30pm 19.0 8.8 7.1 46 6.2 N 50 61 27 33 1006.9 - 0.0
28/07:00pm 19.3 8.8 7.4 46 6.2 N 52 67 28 36 1006.8 - 0.0
28/06:30pm 19.8 9.6 6.9 43 6.7 N 50 63 27 34 1006.9 - 0.0
28/06:00pm 20.2 10.7 6.5 41 7.1 N 46 59 25 32 1007.1 1007.4 0.0
28/05:56pm 20.2 10.7 6.5 41 7.1 N 46 65 25 35 1007.2 - 0.0
28/05:30pm 21.1 11.0 5.9 37 7.8 N 48 61 26 33 1007.3 - 0.0
28/05:00pm 21.5 9.2 5.0 34 8.4 N 59 80 32 43 1007.6 - 0.0
28/04:30pm 21.9 8.9 5.3 34 8.5 N 63 85 34 46 1007.6 - 0.0
28/04:00pm 22.4 9.4 7.0 37 8.1 N 65 95 35 51 1006.7 - 0.0
28/03:59pm 22.3 9.7 7.3 38 8.0 N 63 95 34 51 1006.7 - 0.0
28/03:34pm 21.4 12.3 12.5 57 5.2 N 52 70 28 38 1007.8 - 0.0
28/03:30pm 21.2 11.9 13.1 60 4.7 N 54 70 29 38 1007.7 - 0.0
28/03:23pm 21.3 13.0 12.7 58 5.0 N 48 69 26 37 1008.0 - 0.0
28/03:06pm 22.1 16.0 14.2 61 4.7 N 39 87 21 47 1008.6 - 0.0
28/03:00pm 22.0 10.6 10.5 48 6.5 N 61 87 33 47 1008.2 1008.6 0.0
28/02:38pm 21.5 12.2 12.9 58 5.0 N 54 72 29 39 1009.2 - 0.0
28/02:37pm 21.5 12.2 12.9 58 5.0 N 54 72 29 39 1009.3 - 0.0
28/02:30pm 21.3 11.2 13.5 61 4.6 N 59 76 32 41 1009.2 - 0.0
28/02:00pm 20.2 8.7 12.7 62 4.3 N 65 83 35 45 1009.4 - 0.0
28/01:30pm 19.7 8.6 12.9 65 3.9 N 63 87 34 47 1009.5 - 0.0
28/01:00pm 18.7 7.6 12.9 69 3.3 N 63 82 34 44 1010.2 - 0.0
28/12:30pm 18.0 7.0 12.0 68 3.4 N 61 80 33 43 1010.4 - 0.0
28/12:00pm 17.8 7.7 11.8 68 3.4 N 56 74 30 40 1011.3 1011.7 0.0
28/11:30am 17.1 7.1 12.0 72 2.9 N 56 76 30 41 1011.5 - 0.0
28/11:00am 16.0 5.0 10.7 71 2.9 N 59 78 32 42 1011.9 - 0.0
28/10:32am 15.7 6.1 10.9 73 2.6 N 52 70 28 38 1013.8 - 0.0
28/10:30am 15.4 5.3 10.4 72 2.7 N 54 70 29 38 1014.0 - 0.0
28/10:00am 15.2 5.0 10.2 72 2.7 N 54 67 29 36 1014.3 - 0.0
28/09:30am 14.9 5.5 10.1 73 2.6 N 50 65 27 35 1014.8 - 0.0
28/09:10am 14.5 5.7 9.7 73 2.5 N 46 65 25 35 1015.1 - 0.0
28/09:00am 14.4 5.7 9.8 74 2.4 N 46 61 25 33 1015.3 1015.7 0.0
28/08:49am 14.1 5.6 9.3 73 2.5 N 44 63 24 34 1015.4 - 0.0
28/08:30am 13.7 4.9 9.6 76 2.2 N 46 59 25 32 1015.8 - 0.0
28/08:00am 12.8 5.0 9.6 81 1.7 N 41 54 22 29 1016.0 - 0.0
28/07:30am 12.0 4.8 9.0 82 1.5 N 37 44 20 24 1016.7 - 0.0
28/07:00am 11.3 3.7 8.9 85 1.2 N 39 48 21 26 1016.4 - 0.0
28/06:30am 10.5 2.0 8.6 88 1.0 N 43 48 23 26 1016.2 - 0.0
28/06:00am 10.2 2.1 8.5 89 0.9 N 41 48 22 26 1016.0 1016.5 0.0
28/05:30am 10.4 3.1 8.7 89 0.9 N 37 44 20 24 1016.2 - 0.0
28/05:00am 10.5 2.8 8.6 88 1.0 N 39 50 21 27 1016.2 - 0.0
28/04:30am 10.5 2.8 8.8 89 0.9 N 39 48 21 26 1016.2 - 0.0
28/04:00am 10.9 1.9 8.8 87 1.1 N 46 56 25 30 1015.9 - 0.0
28/03:30am 11.0 2.1 9.1 88 1.0 N 46 57 25 31 1016.3 - 0.0
28/03:00am 11.3 1.6 9.0 86 1.2 N 50 63 27 34 1015.9 1016.4 0.0
28/02:30am 10.8 1.9 9.2 90 0.8 N 46 54 25 29 1016.3 - 0.0
28/02:00am 10.9 2.6 9.3 90 0.8 N 43 50 23 27 1016.7 - 0.0
28/01:30am 11.2 2.9 9.5 89 0.9 N 43 54 23 29 1016.9 - 0.0
28/01:00am 11.4 3.6 9.7 89 0.9 N 41 50 22 27 1017.2 - 0.0
28/12:30am 11.5 3.7 9.8 89 0.9 N 41 50 22 27 1017.5 - 0.0
28/12:00am 11.7 3.9 9.9 89 0.9 N 41 50 22 27 1017.6 1018.1 0.0
 
Date/Time
EST
Temp
°C
App
Temp
°C
Dew
Point
Rel
Hum
%
Delta-T
°C
Wind Press
QNH
hPa
Press
MSL
hPa
Rain
since 9 am
mm
Dir
 
Spd
km/h
Gust
km/h
Spd
kts
Gust
kts
27/11:30pm 12.1 4.4 10.2 88 1.0 N 41 50 22 27 1017.8 - 0.0
27/11:00pm 12.3 4.2 10.2 87 1.1 N 43 52 23 28 1017.9 - 0.0
27/10:30pm 12.5 4.8 10.2 86 1.2 N 41 52 22 28 1018.1 - 0.0
27/10:00pm 12.6 4.9 10.3 86 1.2 N 41 48 22 26 1018.3 - 0.0

Other Formats:

Comma delimited format used in spreadsheet applications
http://www.bom.gov.au/fwo/IDV60801/IDV60801.94860.axf

JavaScript Object Notation format (JSON) in row-major order
http://www.bom.gov.au/fwo/IDV60801/IDV60801.94860.json